Saturday, November 17, 2018, 10:15 AM EST
Back to Local

KMUI, Muir Army Air Field / Indiantown

Location: Jonestown, PA, United States Lat: 40.433
Local Time: 10:15 AM EST (15:15 GMT) Lon: -76.567
Time Zone: US/Eastern Elev: 488 ft

Show me the last for .
Show Coded

Time T Td Feel RH Dir Speed Gust Alt SLP Vis Weather Sky Remarks
2018-11-17 08:56 41 30 32 64 280° 10 17 30.19 30.21 10 BKN038 None
2018-11-17 07:56 40 29 34 65 280° 9 - 30.18 30.20 10 SCT038 None
2018-11-17 06:56 39 29 34 68 260° 7 - 30.18 30.20 10 OVC039 6-hr Min Temp (7am): 37.0°F
6-hr Max Temp (7am): 38.8°F
2018-11-17 05:56 37 30 32 74 210° 7 - 30.16 30.18 10 OVC039 None
2018-11-17 04:56 38 29 33 69 240° 7 - 30.14 30.16 10 OVC035 None
2018-11-17 03:56 38 30 32 70 240° 9 - 30.11 30.13 10 OVC031 None
2018-11-17 03:28 39 30 34 69 240° 8 - 30.09 30.11 10 OVC030 None
2018-11-17 02:56 38 29 32 69 240° 9 - 30.09 30.11 10 OVC028 None
2018-11-17 02:04 39 30 30 69 230° 13 18 30.07 30.09 10 OVC029 None
2018-11-17 01:56 38 30 28 71 230° 8 18 30.06 30.08 10 OVC031 None
2018-11-17 01:36 39 30 32 69 230° 10 - 30.05 30.07 10 OVC031 None
2018-11-17 00:56 38 30 33 70 280° 7 - 30.05 30.07 10 BKN023 OVC028 6-hr Min Temp (1am): 37.2°F
6-hr Max Temp (1am): 38.7°F
2018-11-16 23:56 38 29 34 70 280° 6 - 30.03 30.05 10 OVC024 24-hr Min Temp (12am): 32.9°F
24-hr Max Temp (12am): 40.6°F
2018-11-16 22:56 37 30 32 73 220° 7 - 30.01 30.03 10 OVC023 None
2018-11-16 21:56 38 29 34 70 240° 5 - 30.00 30.02 10 OVC023 None
2018-11-16 20:56 38 29 34 70 280° 5 - 29.98 30.00 10 OVC024 None
2018-11-16 19:56 38 28 32 69 260° 8 - 29.96 29.98 10 OVC025 None
2018-11-16 18:56 38 28 32 67 250° 8 - 29.94 29.96 10 OVC027 Snow depth: 1"
6-hr Min Temp (7pm): 37.8°F
6-hr Max Temp (7pm): 40.6°F
2018-11-16 18:28 37 28 32 69 250° 7 - 29.93 29.95 10 OVC029 None
2018-11-16 17:56 38 27 35 64 260° 5 - 29.91 29.93 10 OVC031 None
2018-11-16 16:56 39 27 29 62 280° 8 20 29.90 29.92 10 BKN033 BKN040 OVC080 None
2018-11-16 15:56 40 29 30 64 260° 12 20 29.86 29.88 10 SCT032 BKN080 None
2018-11-16 14:56 40 30 33 66 250° 13 - 29.83 29.85 10 BKN030 None
2018-11-16 13:56 39 29 29 66 270° 15 22 29.83 29.85 10 OVC027 None
2018-11-16 12:56 39 30 29 69 280° 12 21 29.81 29.83 10 OVC022 6-hr Precip Total (1pm): 0.00"
Snow depth: 1"
6-hr Min Temp (1pm): 32.9°F
6-hr Max Temp (1pm): 39.2°F
2018-11-16 12:52 39 30 29 69 260° 14 21 29.81 29.83 10 OVC022 None
2018-11-16 11:41 39 30 28 69 280° 20 24 29.81 29.83 10 BKN022 BKN100 None
2018-11-16 10:56 38 31 31 76 260° 10 - 29.82 29.84 10 BKN019 OVC035 None

Support USWX by starting your Amazon purchase here.